Time;durP1;ratioP1;P1;durP2;ratioP2;P2;SDS_P1;SDS_P2;PMS_P1;PMS_P2;Temp;Humidity;BMP_temperature;BMP_pressure;BME280_temperature;BME280_humidity;BME280_pressure;Samples;Min_cycle;Max_cycle;Signal;HPM_P1;HPM_P2
2023/07/08 00:01:16;;;;;;;5.50;3.65;;;;;;;18.40;61.12;101810.41;6189639;23;20047;-77
2023/07/08 00:03:43;;;;;;;4.53;3.58;;;;;;;18.41;61.25;101809.19;6188319;23;20018;-77
2023/07/08 00:06:22;;;;;;;3.97;3.65;;;;;;;18.36;62.29;101803.72;6189849;23;20025;-77
2023/07/08 00:08:48;;;;;;;3.70;3.45;;;;;;;18.30;62.02;101795.56;6189354;23;20022;-77
2023/07/08 00:11:16;;;;;;;9.20;3.67;;;;;;;18.26;62.35;101797.69;6163028;23;20027;-77
2023/07/08 00:13:42;;;;;;;6.10;3.70;;;;;;;18.23;62.52;101788.59;6189095;23;20018;-77
2023/07/08 00:16:13;;;;;;;4.57;4.20;;;;;;;18.22;63.38;101786.38;6189158;23;20490;-76
2023/07/08 00:18:41;;;;;;;4.10;3.80;;;;;;;18.16;63.13;101783.59;6189007;23;20021;-77
2023/07/08 00:21:14;;;;;;;3.90;3.60;;;;;;;18.14;62.81;101785.25;6189306;23;20020;-77
2023/07/08 00:23:46;;;;;;;4.53;3.80;;;;;;;18.12;62.35;101791.13;6189003;23;20447;-77
2023/07/08 00:26:21;;;;;;;5.22;3.80;;;;;;;18.10;62.75;101780.06;6157694;23;20024;-77
2023/07/08 00:28:48;;;;;;;10.20;3.72;;;;;;;18.11;62.64;101786.19;6159440;23;20073;-77
2023/07/08 00:31:15;;;;;;;4.47;3.65;;;;;;;18.11;62.26;101784.25;6157503;23;20018;-77
2023/07/08 00:33:41;;;;;;;4.60;3.65;;;;;;;18.10;63.25;101784.72;6157150;23;20014;-76
2023/07/08 00:36:12;;;;;;;3.97;3.75;;;;;;;18.01;63.66;101780.16;6157711;23;20486;-76
2023/07/08 00:38:44;;;;;;;;;;;;;;;18.02;62.29;101780.91;6157909;23;20026;-77
2023/07/08 00:41:18;;;;;;;5.15;3.70;;;;;;;17.97;63.94;101779.63;6158442;23;20314;-76
2023/07/08 00:43:53;;;;;;;3.55;3.35;;;;;;;17.92;63.69;101775.63;6133105;23;20073;-77
2023/07/08 00:46:31;;;;;;;4.32;3.72;;;;;;;17.87;63.48;101773.59;6157089;23;20053;-76
2023/07/08 00:49:08;;;;;;;4.57;3.90;;;;;;;17.88;63.00;101774.31;6157934;23;20424;-76
2023/07/08 00:51:37;;;;;;;4.00;3.70;;;;;;;17.84;63.67;101774.50;6158712;23;20014;-77
2023/07/08 00:54:05;;;;;;;4.22;3.83;;;;;;;17.80;64.88;101767.81;6159643;23;20014;-77
2023/07/08 00:56:38;;;;;;;3.95;3.58;;;;;;;17.77;64.38;101766.81;6158997;23;20093;-76
2023/07/08 00:59:09;;;;;;;5.45;3.90;;;;;;;17.79;63.71;101763.66;6159800;23;20531;-77
2023/07/08 01:01:41;;;;;;;4.18;3.80;;;;;;;17.79;63.34;101763.66;6156639;23;20087;-76
2023/07/08 01:04:16;;;;;;;4.78;3.92;;;;;;;17.82;62.92;101776.94;6159755;23;20022;-76
2023/07/08 01:06:52;;;;;;;3.83;3.53;;;;;;;17.88;62.97;101766.25;6157110;23;20407;-76
2023/07/08 01:09:19;;;;;;;10.25;3.92;;;;;;;17.89;62.74;101762.34;6157494;23;20376;-76
2023/07/08 01:11:46;;;;;;;5.13;3.55;;;;;;;17.91;63.01;101765.31;6157572;23;20018;-76
2023/07/08 01:14:18;;;;;;;4.10;3.80;;;;;;;17.94;62.75;101762.44;6159205;23;20033;-78
2023/07/08 01:16:46;;;;;;;5.05;4.05;;;;;;;17.94;63.17;101754.38;6133317;23;20018;-78
2023/07/08 01:19:18;;;;;;;4.28;3.88;;;;;;;17.96;62.87;101759.28;6159693;23;20014;-79
2023/07/08 01:22:06;;;;;;;3.95;3.65;;;;;;;17.95;63.20;101763.19;6159271;23;20093;-78
2023/07/08 01:24:36;;;;;;;4.43;3.95;;;;;;;17.95;63.03;101758.53;6158992;23;20018;-78
2023/07/08 01:27:06;;;;;;;4.70;3.85;;;;;;;17.95;63.55;101750.47;6162055;23;20090;-78
2023/07/08 01:29:34;;;;;;;4.00;3.80;;;;;;;17.94;63.23;101751.66;6161141;23;20459;-77
2023/07/08 01:32:02;;;;;;;4.40;3.88;;;;;;;17.93;63.42;101744.78;6189160;23;20020;-78
2023/07/08 01:34:31;;;;;;;4.25;3.85;;;;;;;17.92;63.42;101753.34;6162127;23;20085;-78
2023/07/08 01:37:00;;;;;;;3.65;3.45;;;;;;;17.89;64.11;101751.56;6162559;23;20021;-77
2023/07/08 01:39:31;;;;;;;4.97;4.30;;;;;;;17.87;63.72;101746.66;6162359;23;20463;-77
2023/07/08 01:41:58;;;;;;;4.53;4.05;;;;;;;17.84;64.20;101739.50;6189303;23;20018;-76
2023/07/08 01:44:32;;;;;;;7.35;3.58;;;;;;;17.81;64.75;101739.69;6161590;23;20028;-76
2023/07/08 01:47:13;;;;;;;5.55;3.97;;;;;;;17.79;64.69;101742.09;6188958;23;20422;-76
2023/07/08 01:49:41;;;;;;;4.45;4.00;;;;;;;17.78;64.83;101737.91;6161639;23;20028;-76
2023/07/08 01:52:10;;;;;;;4.15;3.75;;;;;;;17.74;64.88;101737.38;6188954;23;20018;-76
2023/07/08 01:54:37;;;;;;;4.35;3.95;;;;;;;17.72;65.34;101737.09;6161418;23;20027;-76
2023/07/08 01:57:04;;;;;;;5.32;4.00;;;;;;;17.69;64.69;101741.44;6162106;23;20080;-76
2023/07/08 01:59:31;;;;;;;4.07;3.78;;;;;;;17.65;65.88;101736.25;6162038;23;20026;-76
2023/07/08 02:02:00;;;;;;;4.80;3.47;;;;;;;17.61;65.47;101732.97;6163664;23;20018;-76
2023/07/08 02:04:30;;;;;;;4.78;4.18;;;;;;;17.61;65.51;101732.22;6190126;23;20037;-76
2023/07/08 02:06:59;;;;;;;5.35;4.00;;;;;;;17.60;65.65;101723.41;6190089;23;20020;-76
2023/07/08 02:09:27;;;;;;;4.57;4.18;;;;;;;17.58;65.83;101720.47;6189760;23;20404;-76
2023/07/08 02:11:53;;;;;;;6.20;4.05;;;;;;;17.57;65.81;101721.66;6162552;23;20018;-76
2023/07/08 02:14:20;;;;;;;4.30;4.00;;;;;;;17.55;66.01;101718.69;6162854;23;20068;-77
2023/07/08 02:16:47;;;;;;;4.25;3.67;;;;;;;17.52;66.65;101705.41;6163072;23;20021;-77
2023/07/08 02:19:14;;;;;;;4.07;3.67;;;;;;;17.48;67.65;101710.25;6190028;23;20029;-75
2023/07/08 02:21:41;;;;;;;4.30;3.95;;;;;;;17.42;68.22;101710.13;6189641;23;20045;-78
2023/07/08 02:24:07;;;;;;;6.63;4.13;;;;;;;17.37;67.49;101710.03;6163711;23;20053;-76
2023/07/08 02:26:34;;;;;;;5.97;4.45;;;;;;;17.33;67.72;101705.59;6188738;23;20013;-78
2023/07/08 02:29:02;;;;;;;7.82;4.60;;;;;;;17.31;67.46;101709.94;6189836;23;20021;-78
2023/07/08 02:31:30;;;;;;;4.88;4.38;;;;;;;17.30;67.42;101709.19;6189810;23;20025;-77
2023/07/08 02:33:57;;;;;;;5.05;4.50;;;;;;;17.30;66.88;101703.06;6163511;23;20440;-76
2023/07/08 02:36:23;;;;;;;8.45;4.43;;;;;;;17.28;68.04;101695.47;6163549;23;20466;-76
2023/07/08 02:38:50;;;;;;;5.20;4.57;;;;;;;17.26;67.96;101705.19;6189653;23;20017;-76
2023/07/08 02:41:17;;;;;;;4.50;4.10;;;;;;;17.23;67.92;101693.41;6162673;23;20966;-76
2023/07/08 02:43:44;;;;;;;6.97;4.63;;;;;;;17.21;67.52;101695.81;6162946;23;20617;-76
2023/07/08 02:46:11;;;;;;;6.13;4.60;;;;;;;17.21;67.75;101687.75;6163327;23;20053;-76
2023/07/08 02:48:38;;;;;;;5.65;3.97;;;;;;;17.18;68.32;101696.75;6163203;23;20045;-76
2023/07/08 02:51:05;;;;;;;4.50;4.20;;;;;;;17.18;67.82;101698.72;6163277;23;20022;-76
2023/07/08 02:53:32;;;;;;;8.23;4.07;;;;;;;17.16;67.78;101698.44;6162538;23;20029;-76
2023/07/08 02:55:59;;;;;;;6.97;4.28;;;;;;;17.12;68.24;101687.84;6189061;23;20096;-76
2023/07/08 02:58:25;;;;;;;4.88;4.38;;;;;;;17.11;67.81;101691.00;6189722;23;20047;-76
2023/07/08 03:00:53;;;;;;;4.80;4.40;;;;;;;17.10;67.81;101686.81;6163009;23;20022;-76
2023/07/08 03:03:21;;;;;;;5.53;4.30;;;;;;;17.09;67.96;101693.41;6163024;23;20045;-75
2023/07/08 03:05:55;;;;;;;5.28;4.45;;;;;;;17.07;69.31;101695.81;6162922;23;20069;-76
2023/07/08 03:08:22;;;;;;;5.00;4.55;;;;;;;17.02;69.49;101694.50;6163318;23;20022;-76
2023/07/08 03:10:55;;;;;;;6.43;4.07;;;;;;;16.97;69.67;101690.50;6162354;23;20049;-75
2023/07/08 03:13:21;;;;;;;4.72;4.43;;;;;;;16.94;70.29;101688.00;6189714;23;20068;-75
2023/07/08 03:15:48;;;;;;;5.13;4.28;;;;;;;16.91;69.43;101688.91;6189513;23;20081;-76
2023/07/08 03:18:15;;;;;;;10.48;4.70;;;;;;;16.90;68.97;101687.41;6189970;23;20418;-76
2023/07/08 03:20:44;;;;;;;9.25;4.63;;;;;;;16.89;70.01;101686.66;6162529;23;20013;-76
2023/07/08 03:23:12;;;;;;;6.25;4.28;;;;;;;16.86;69.80;101684.16;6162846;23;20017;-76
2023/07/08 03:25:39;;;;;;;4.65;4.32;;;;;;;16.84;69.69;101678.50;6156522;23;20100;-76
2023/07/08 03:28:06;;;;;;;4.72;4.32;;;;;;;16.81;70.68;101679.41;6158104;23;20022;-76
2023/07/08 03:30:33;;;;;;;4.43;3.92;;;;;;;16.81;70.32;101693.59;6157160;23;20113;-76
2023/07/08 03:33:00;;;;;;;8.20;4.10;;;;;;;16.77;71.06;101695.75;6157476;23;20018;-77
2023/07/08 03:35:27;;;;;;;5.55;4.35;;;;;;;16.73;70.71;101692.50;6157425;23;20109;-76
2023/07/08 03:37:54;;;;;;;4.90;4.43;;;;;;;16.73;70.30;101697.88;6157178;23;20468;-76
2023/07/08 03:40:21;;;;;;;4.80;4.40;;;;;;;16.76;70.05;101693.53;6156815;23;20100;-76
2023/07/08 03:42:48;;;;;;;4.68;4.13;;;;;;;16.77;70.04;101689.63;6157554;23;20022;-76
2023/07/08 03:45:15;;;;;;;4.35;4.05;;;;;;;16.75;70.12;101695.47;6158364;23;20014;-76
2023/07/08 03:47:42;;;;;;;5.55;4.35;;;;;;;16.73;71.27;101700.56;6132882;23;20481;-76
2023/07/08 03:50:18;;;;;;;6.38;4.55;;;;;;;16.72;71.52;101695.63;6158031;23;20101;-77
2023/07/08 03:52:48;;;;;;;5.13;4.38;;;;;;;16.66;72.73;101695.53;6159705;23;20426;-76
2023/07/08 03:55:16;;;;;;;4.53;4.13;;;;;;;16.63;72.61;101699.09;6157526;23;20297;-76
2023/07/08 03:57:43;;;;;;;5.05;4.20;;;;;;;16.60;73.21;101692.69;6132780;23;20459;-76
2023/07/08 04:00:14;;;;;;;4.68;4.28;;;;;;;16.59;73.24;101701.94;6158092;23;20018;-76
2023/07/08 04:02:45;;;;;;;5.45;4.93;;;;;;;16.57;74.07;101698.97;6159080;23;20483;-76
2023/07/08 04:05:20;;;;;;;6.82;4.45;;;;;;;16.55;73.94;101692.56;6158267;23;20065;-76
2023/07/08 04:07:48;;;;;;;4.53;4.20;;;;;;;16.53;73.93;101693.03;6159491;23;20025;-76
2023/07/08 04:10:16;;;;;;;5.07;4.68;;;;;;;16.53;74.69;101692.28;6157244;23;20112;-76
2023/07/08 04:12:43;;;;;;;6.30;4.43;;;;;;;16.53;74.63;101692.28;6159046;23;20018;-77
2023/07/08 04:15:11;;;;;;;5.13;4.63;;;;;;;16.52;73.95;101693.47;6159684;23;20018;-76
2023/07/08 04:17:43;;;;;;;4.63;4.22;;;;;;;16.53;74.80;101700.34;6158869;23;20025;-76
2023/07/08 04:20:10;;;;;;;6.05;4.72;;;;;;;16.52;75.80;101702.28;6159429;23;20077;-77
2023/07/08 04:22:37;;;;;;;5.40;4.47;;;;;;;16.54;74.84;101707.22;6156442;23;20356;-76
2023/07/08 04:25:04;;;;;;;5.22;4.60;;;;;;;16.57;75.34;101693.59;6165237;23;20473;-76
2023/07/08 04:27:31;;;;;;;5.32;4.85;;;;;;;16.59;75.66;101701.22;6162363;23;20026;-76
2023/07/08 04:29:58;;;;;;;6.90;4.72;;;;;;;16.62;75.21;101698.34;6189432;23;20024;-76
2023/07/08 04:32:25;;;;;;;5.15;4.68;;;;;;;16.67;74.77;101702.38;6162406;23;20080;-77
2023/07/08 04:34:52;;;;;;;4.63;4.22;;;;;;;16.69;74.71;101689.22;6189204;23;20021;-76
2023/07/08 04:37:19;;;;;;;6.00;4.75;;;;;;;16.76;73.29;101699.63;6188505;23;20021;-78
2023/07/08 04:39:46;;;;;;;5.70;4.82;;;;;;;16.85;72.18;101699.56;6189149;23;20415;-77
2023/07/08 04:42:16;;;;;;;5.15;4.78;;;;;;;16.94;71.70;101706.81;6189542;23;20025;-77
2023/07/08 04:44:43;;;;;;;8.40;4.72;;;;;;;17.03;71.37;101706.00;6188560;23;20041;-77
2023/07/08 04:47:12;;;;;;;5.22;4.82;;;;;;;17.48;70.01;101694.09;6189329;23;20017;-77
2023/07/08 04:49:40;;;;;;;5.68;5.18;;;;;;;17.78;69.17;101702.91;6162538;23;20429;-77
2023/07/08 04:52:07;;;;;;;5.15;4.65;;;;;;;18.00;67.55;101706.69;6188964;23;20119;-77
2023/07/08 04:54:33;;;;;;;6.82;5.05;;;;;;;19.10;64.40;101702.44;6188557;23;20049;-78
2023/07/08 04:57:00;;;;;;;6.40;5.70;;;;;;;20.46;60.74;101708.38;6162982;23;20088;-77
2023/07/08 04:59:27;;;;;;;7.43;4.68;;;;;;;20.89;57.70;101703.63;6189000;23;20089;-77
2023/07/08 05:01:53;;;;;;;5.60;4.22;;;;;;;21.37;55.99;101695.38;6189140;23;20088;-78
2023/07/08 05:04:22;;;;;;;7.35;4.70;;;;;;;22.85;51.71;101707.59;6188906;23;20072;-79
2023/07/08 05:06:48;;;;;;;4.88;4.38;;;;;;;24.07;48.18;101696.28;6188382;23;20029;-77
2023/07/08 05:09:15;;;;;;;4.85;4.55;;;;;;;24.94;46.40;101703.13;6189096;23;20479;-77
2023/07/08 05:11:44;;;;;;;4.95;4.55;;;;;;;25.58;43.79;101700.41;6162883;23;20396;-77
2023/07/08 05:14:12;;;;;;;8.15;4.18;;;;;;;26.22;43.19;101698.25;6189216;23;20456;-77
2023/07/08 05:16:40;;;;;;;6.95;4.40;;;;;;;26.45;41.85;101701.28;6188418;23;20017;-77
2023/07/08 05:19:07;;;;;;;6.63;4.60;;;;;;;26.88;41.33;101694.63;6189189;23;20084;-77
2023/07/08 05:21:34;;;;;;;6.40;4.57;;;;;;;26.97;40.83;101693.47;6188036;23;20451;-77
2023/07/08 05:24:05;;;;;;;7.15;4.13;;;;;;;27.65;39.86;101696.78;6189366;23;20013;-78
2023/07/08 05:26:32;;;;;;;4.80;4.40;;;;;;;27.88;38.50;101697.66;6188359;23;20057;-77
2023/07/08 05:28:59;;;;;;;9.57;4.30;;;;;;;28.16;38.76;101701.63;6189295;23;20017;-77
2023/07/08 05:31:25;;;;;;;9.18;4.72;;;;;;;27.90;38.13;101697.13;6162222;23;20045;-77
2023/07/08 05:34:11;;;;;;;8.55;5.00;;;;;;;27.76;38.66;101699.22;6188800;23;20017;-77
2023/07/08 05:36:38;;;;;;;4.78;4.38;;;;;;;28.01;38.55;101701.53;6187538;23;20444;-75
2023/07/08 05:39:05;;;;;;;10.68;4.60;;;;;;;28.15;38.40;101705.63;6189150;23;20020;-78
2023/07/08 05:41:32;;;;;;;4.70;4.30;;;;;;;28.40;37.65;101697.72;6188330;23;20490;-76
2023/07/08 05:43:58;;;;;;;5.88;4.15;;;;;;;28.25;37.70;101701.16;6188930;23;20032;-77
2023/07/08 05:46:25;;;;;;;6.97;4.47;;;;;;;28.32;37.77;101705.19;6137390;23;20034;-78
2023/07/08 05:48:52;;;;;;;8.68;4.63;;;;;;;28.09;38.26;101696.84;6189212;23;20018;-76
2023/07/08 05:51:18;;;;;;;6.50;4.50;;;;;;;27.93;38.81;101696.06;6188679;23;20021;-76
2023/07/08 05:53:45;;;;;;;4.43;4.13;;;;;;;27.89;39.70;101698.41;6189202;23;20020;-76
2023/07/08 05:56:11;;;;;;;5.45;4.68;;;;;;;27.72;39.13;101689.91;6189238;23;20048;-76
2023/07/08 05:58:38;;;;;;;4.57;3.90;;;;;;;27.29;40.43;101685.72;6162570;23;20674;-76
2023/07/08 06:01:05;;;;;;;8.55;4.03;;;;;;;27.20;40.50;101686.19;6189060;23;20456;-77
2023/07/08 06:03:32;;;;;;;4.97;4.05;;;;;;;27.27;40.46;101696.47;6189323;23;20089;-78
2023/07/08 06:05:59;;;;;;;3.95;3.67;;;;;;;27.17;40.55;101698.22;6188932;23;20029;-82
2023/07/08 06:08:25;;;;;;;9.73;4.20;;;;;;;26.80;40.87;101691.09;6189159;23;20014;-82
2023/07/08 06:10:52;;;;;;;6.15;3.80;;;;;;;26.60;42.07;101700.00;6189541;23;20023;-81
2023/07/08 06:13:18;;;;;;;5.18;3.90;;;;;;;26.37;43.33;101702.47;6162476;23;20022;-78
2023/07/08 06:15:45;;;;;;;7.00;4.15;;;;;;;26.14;43.07;101702.88;6189581;23;20021;-79
2023/07/08 06:18:12;;;;;;;4.15;3.85;;;;;;;26.05;44.17;101697.09;6189483;23;20049;-79
2023/07/08 06:20:38;;;;;;;6.90;4.93;;;;;;;25.82;43.67;101702.25;6188548;23;20429;-78
2023/07/08 06:23:05;;;;;;;4.32;4.03;;;;;;;25.71;43.54;101696.97;6188980;23;20013;-78
2023/07/08 06:25:33;;;;;;;9.18;4.10;;;;;;;25.63;44.19;101693.38;6188451;23;20052;-78
2023/07/08 06:27:59;;;;;;;6.25;3.63;;;;;;;25.57;44.46;101691.50;6163257;23;20482;-79
2023/07/08 06:30:26;;;;;;;6.25;3.92;;;;;;;25.50;44.66;101696.84;6189051;23;20068;-77
2023/07/08 06:32:53;;;;;;;9.35;3.92;;;;;;;25.42;44.97;101696.72;6188537;23;20014;-74
2023/07/08 06:35:19;;;;;;;6.88;4.00;;;;;;;25.37;45.87;101711.16;6188774;23;20474;-76
2023/07/08 06:37:46;;;;;;;6.28;4.32;;;;;;;25.41;45.50;101708.88;6189271;23;20020;-76
2023/07/08 06:40:13;;;;;;;4.32;3.60;;;;;;;25.48;45.96;101702.81;6189198;23;20388;-76
2023/07/08 06:42:39;;;;;;;4.28;3.60;;;;;;;25.47;45.62;101701.34;6162757;23;20020;-77
2023/07/08 06:45:29;;;;;;;7.57;3.67;;;;;;;25.51;44.79;101711.94;6178068;23;20030;-77
2023/07/08 06:47:56;;;;;;;6.40;3.97;;;;;;;25.47;45.41;101714.22;6163593;23;20458;-77
2023/07/08 06:50:22;;;;;;;4.40;3.70;;;;;;;25.37;45.47;101713.88;6189830;23;20025;-76
2023/07/08 06:52:49;;;;;;;6.50;3.50;;;;;;;25.47;44.28;101703.31;6190347;23;20468;-78
2023/07/08 06:55:15;;;;;;;6.93;3.45;;;;;;;25.54;45.46;101700.72;6190571;23;20024;-77
2023/07/08 06:57:42;;;;;;;3.72;3.42;;;;;;;25.66;44.46;101695.81;6190177;23;20162;-77
2023/07/08 07:00:11;;;;;;;7.25;3.90;;;;;;;25.67;44.89;101691.09;6190647;23;20045;-77
2023/07/08 07:02:38;;;;;;;5.72;3.50;;;;;;;25.77;44.81;101698.34;6163390;23;20013;-78
2023/07/08 07:05:05;;;;;;;8.73;3.75;;;;;;;25.76;44.44;101696.88;6190508;23;20049;-78
2023/07/08 07:07:32;;;;;;;4.78;3.95;;;;;;;25.88;44.70;101702.88;6189898;23;20506;-78
2023/07/08 07:09:58;;;;;;;3.92;3.53;;;;;;;25.92;44.96;101689.66;6190584;23;20400;-78
2023/07/08 07:12:26;;;;;;;4.55;3.90;;;;;;;26.00;45.57;101695.19;6189714;23;20048;-78
2023/07/08 07:14:53;;;;;;;8.18;3.58;;;;;;;26.14;45.99;101696.69;6163721;23;20026;-78
2023/07/08 07:17:25;;;;;;;4.18;3.70;;;;;;;26.26;43.85;101692.47;6189709;23;20077;-79
2023/07/08 07:19:53;;;;;;;3.65;3.35;;;;;;;26.37;44.91;101695.00;6190678;23;20014;-79
2023/07/08 07:22:19;;;;;;;4.30;3.50;;;;;;;26.51;45.13;101692.97;6190201;23;20092;-79
2023/07/08 07:24:46;;;;;;;4.20;3.90;;;;;;;26.61;44.54;101696.72;6189925;23;20022;-78
2023/07/08 07:27:13;;;;;;;9.23;4.13;;;;;;;26.68;45.51;101693.34;6164342;23;20049;-79
2023/07/08 07:29:47;;;;;;;4.28;3.85;;;;;;;26.73;44.38;101697.22;6190061;23;20069;-79
2023/07/08 07:32:16;;;;;;;6.50;4.05;;;;;;;26.63;44.29;101698.94;6189767;23;20017;-78
2023/07/08 07:34:42;;;;;;;10.45;4.35;;;;;;;26.71;43.74;101697.75;6190005;23;20043;-79
2023/07/08 07:37:12;;;;;;;6.30;3.67;;;;;;;26.90;44.55;101694.84;6163937;23;20014;-78
2023/07/08 07:39:40;;;;;;;4.27;3.87;;;;;;;27.02;44.50;101687.88;6190090;23;20052;-77
2023/07/08 07:42:08;;;;;;;4.50;3.63;;;;;;;27.10;43.99;101696.88;6190320;23;20224;-80
2023/07/08 07:44:34;;;;;;;4.38;4.07;;;;;;;27.32;44.44;101695.59;6189884;23;20010;-79
2023/07/08 07:47:02;;;;;;;5.80;4.03;;;;;;;27.60;43.29;101694.19;6189957;23;20522;-79
2023/07/08 07:49:29;;;;;;;4.55;4.13;;;;;;;27.78;42.30;101695.94;6190134;23;20081;-79
2023/07/08 07:51:56;;;;;;;5.75;4.13;;;;;;;27.76;42.34;101693.03;6190308;23;20109;-78
2023/07/08 07:54:22;;;;;;;4.43;4.00;;;;;;;27.92;42.31;101686.38;6163445;23;20056;-78
2023/07/08 07:56:49;;;;;;;5.03;3.67;;;;;;;28.10;42.77;101687.38;6163243;23;20013;-76
2023/07/08 07:59:16;;;;;;;4.10;3.80;;;;;;;28.10;42.06;101681.88;6190542;23;20045;-77
2023/07/08 08:01:42;;;;;;;5.65;3.80;;;;;;;28.22;42.76;101677.59;6189194;23;20021;-77
2023/07/08 08:04:10;;;;;;;8.98;3.70;;;;;;;28.29;41.63;101679.63;6189019;23;20021;-77
2023/07/08 08:06:37;;;;;;;10.32;3.92;;;;;;;28.46;40.83;101676.38;6189535;23;20013;-78
2023/07/08 08:09:05;;;;;;;6.15;3.70;;;;;;;28.58;40.86;101674.78;6190021;23;20013;-77
2023/07/08 08:11:32;;;;;;;5.43;3.80;;;;;;;28.73;39.83;101661.13;6190044;23;20026;-77
2023/07/08 08:14:00;;;;;;;7.30;5.18;;;;;;;28.86;40.63;101665.72;6190414;23;20017;-78
2023/07/08 08:16:27;;;;;;;5.47;3.85;;;;;;;29.02;39.04;101669.22;6138082;23;20486;-78
2023/07/08 08:18:53;;;;;;;4.00;3.65;;;;;;;29.01;38.13;101673.97;6190207;23;20038;-78
2023/07/08 08:21:21;;;;;;;4.13;3.72;;;;;;;29.15;39.78;101674.53;6189894;23;20072;-78
2023/07/08 08:23:48;;;;;;;3.67;3.47;;;;;;;29.32;42.11;101682.19;6190186;23;20119;-78
2023/07/08 08:26:14;;;;;;;4.35;3.90;;;;;;;29.51;38.96;101683.28;6189753;23;20092;-78
2023/07/08 08:28:41;;;;;;;6.90;4.13;;;;;;;29.61;38.39;101677.22;6189748;23;20088;-78
2023/07/08 08:31:07;;;;;;;4.25;3.95;;;;;;;29.69;39.01;101677.94;6189729;23;20033;-78
2023/07/08 08:33:34;;;;;;;4.53;4.22;;;;;;;29.93;38.23;101682.09;6189391;23;20022;-78
2023/07/08 08:36:01;;;;;;;6.43;4.20;;;;;;;29.83;38.73;101676.44;6190066;23;20022;-77
2023/07/08 08:38:28;;;;;;;6.32;4.03;;;;;;;29.84;39.72;101678.66;6189910;23;20097;-77
2023/07/08 08:40:54;;;;;;;6.57;4.55;;;;;;;30.02;39.02;101679.50;6190220;23;20097;-77
2023/07/08 08:43:28;;;;;;;10.02;4.40;;;;;;;30.18;38.28;101686.41;6189719;23;20407;-77
2023/07/08 08:46:01;;;;;;;4.93;4.18;;;;;;;30.01;39.02;101691.78;6163975;23;20465;-77
2023/07/08 08:48:32;;;;;;;4.43;4.05;;;;;;;30.10;39.72;101693.22;6163523;23;20053;-78
2023/07/08 08:51:05;;;;;;;4.93;4.32;;;;;;;30.39;37.83;101697.09;6189874;23;20021;-77
2023/07/08 08:53:33;;;;;;;6.32;4.50;;;;;;;30.45;37.50;101694.88;6189928;23;20531;-77
2023/07/08 08:56:18;;;;;;;5.32;4.18;;;;;;;30.67;37.72;101698.09;6189819;23;20022;-78
2023/07/08 08:59:00;;;;;;;6.93;4.43;;;;;;;30.79;37.40;101699.13;6189705;23;20053;-77
2023/07/08 09:01:27;;;;;;;5.13;4.60;;;;;;;30.60;37.92;101696.13;6189869;23;20043;-77
2023/07/08 09:04:00;;;;;;;7.28;4.50;;;;;;;30.82;36.62;101695.22;6189956;23;20028;-77
2023/07/08 09:06:30;;;;;;;7.43;4.47;;;;;;;30.83;36.46;101696.69;6189489;23;20018;-77
2023/07/08 09:09:02;;;;;;;8.00;4.82;;;;;;;30.96;36.50;101695.69;6189996;23;20497;-77
2023/07/08 09:11:50;;;;;;;10.15;4.80;;;;;;;31.18;36.90;101697.56;6189790;23;20017;-78
2023/07/08 09:14:27;;;;;;;6.63;4.72;;;;;;;31.14;35.86;101691.75;6189509;23;20430;-77
2023/07/08 09:17:11;;;;;;;4.90;4.50;;;;;;;31.41;33.94;101691.88;6190158;23;20020;-77
2023/07/08 09:19:44;;;;;;;5.70;4.55;;;;;;;31.53;34.09;101697.63;6189809;23;20463;-78
2023/07/08 09:22:47;;;;;;;4.82;4.50;;;;;;;31.55;35.01;101695.03;6190018;23;20013;-78
2023/07/08 09:25:35;;;;;;;5.72;4.40;;;;;;;31.56;35.71;101702.00;6189638;23;20474;-77
2023/07/08 09:28:02;;;;;;;5.05;4.63;;;;;;;31.60;34.84;101691.28;6189689;23;20024;-78
2023/07/08 09:30:30;;;;;;;4.93;4.53;;;;;;;31.89;35.31;101686.81;6189155;23;20030;-77
2023/07/08 09:33:02;;;;;;;5.65;5.15;;;;;;;32.14;33.57;101684.66;6189989;23;20025;-76
2023/07/08 09:35:42;;;;;;;5.22;4.82;;;;;;;32.12;33.85;101689.28;6189518;23;20052;-75
2023/07/08 09:38:14;;;;;;;4.63;4.20;;;;;;;32.12;33.99;101687.25;6190096;23;20078;-76
2023/07/08 09:40:48;;;;;;;5.00;4.60;;;;;;;32.35;35.00;101689.75;6189618;23;20013;-75
2023/07/08 09:43:15;;;;;;;7.93;5.32;;;;;;;32.42;33.02;101691.66;6189261;23;20097;-76
2023/07/08 09:45:45;;;;;;;6.20;5.28;;;;;;;32.34;32.34;101685.53;6189527;23;20021;-75
2023/07/08 09:48:17;;;;;;;;;;;;;;;32.43;34.22;101700.63;6164482;23;20041;-75
2023/07/08 09:50:52;;;;;;;5.57;5.10;;;;;;;32.41;32.63;101694.97;6190005;23;19920;-75
2023/07/08 09:53:19;;;;;;;5.72;5.30;;;;;;;32.61;32.55;101693.06;6189317;23;20025;-75
2023/07/08 09:55:46;;;;;;;6.80;5.57;;;;;;;32.60;32.04;101689.56;6189642;23;20033;-75
2023/07/08 09:58:25;;;;;;;7.60;5.32;;;;;;;32.78;32.39;101695.78;6189024;23;20077;-76
2023/07/08 10:00:58;;;;;;;7.72;5.65;;;;;;;32.80;31.92;101693.16;6189693;23;20073;-77
2023/07/08 10:03:30;;;;;;;6.28;5.80;;;;;;;32.81;31.85;101692.56;6189307;23;20590;-77
2023/07/08 10:06:02;;;;;;;5.68;5.18;;;;;;;33.09;32.18;101699.50;6163352;23;20463;-77
2023/07/08 10:08:42;;;;;;;5.88;5.35;;;;;;;33.40;31.91;101694.19;6188320;23;20024;-77
2023/07/08 10:11:20;;;;;;;5.65;5.25;;;;;;;33.50;31.70;101688.69;6162150;23;20022;-75
2023/07/08 10:13:52;;;;;;;5.82;5.22;;;;;;;33.42;30.63;101691.59;6189539;23;20013;-77
2023/07/08 10:16:38;;;;;;;6.15;5.65;;;;;;;33.18;30.55;101702.84;6189247;23;20158;-76
2023/07/08 10:19:17;;;;;;;7.47;5.63;;;;;;;33.35;30.85;101689.69;6163812;23;20097;-76
2023/07/08 10:22:07;;;;;;;6.40;5.90;;;;;;;33.38;30.04;101691.28;6190540;23;20020;-76
2023/07/08 10:24:46;;;;;;;5.80;5.30;;;;;;;33.40;31.57;101685.94;6040600;23;20024;-76
2023/07/08 10:27:20;;;;;;;8.68;6.22;;;;;;;33.44;31.93;101686.22;6040483;23;20167;-76
2023/07/08 10:30:06;;;;;;;6.35;5.93;;;;;;;33.59;32.23;101684.50;6041032;23;20019;-75
2023/07/08 10:32:42;;;;;;;6.38;5.78;;;;;;;33.45;31.39;101684.91;6040914;23;20106;-75
2023/07/08 10:35:20;;;;;;;6.72;6.18;;;;;;;33.71;32.24;101680.56;6040799;23;20016;-75
2023/07/08 10:38:04;;;;;;;6.47;6.00;;;;;;;33.85;31.24;101682.91;6039592;23;20106;-78
2023/07/08 10:40:45;;;;;;;12.23;6.35;;;;;;;33.92;31.83;101682.75;6039980;23;20059;-77
2023/07/08 10:43:23;;;;;;;6.70;6.10;;;;;;;34.20;30.55;101686.03;6040712;23;20023;-77
2023/07/08 10:46:28;;;;;;;8.05;6.28;;;;;;;34.30;31.82;101684.00;6041428;23;20095;-77
2023/07/08 10:49:08;;;;;;;7.20;5.70;;;;;;;34.26;30.84;101686.47;6040973;23;20028;-77
2023/07/08 10:52:05;;;;;;;6.33;5.83;;;;;;;34.33;30.26;101685.59;6040602;23;20115;-76
2023/07/08 10:55:11;;;;;;;6.70;6.05;;;;;;;34.31;30.83;101679.94;6040127;23;20334;-75
2023/07/08 10:57:59;;;;;;;11.07;6.30;;;;;;;34.31;30.21;101675.16;6040934;23;20031;-76
2023/07/08 11:00:31;;;;;;;7.35;6.00;;;;;;;34.54;29.04;101666.31;6040532;23;20092;-77
2023/07/08 11:03:43;;;;;;;6.70;5.88;;;;;;;34.78;29.53;101672.78;6189930;23;20024;-76
2023/07/08 11:06:20;;;;;;;6.50;6.05;;;;;;;34.57;29.71;101658.88;6190528;23;20505;-76
2023/07/08 11:08:55;;;;;;;7.80;5.97;;;;;;;34.72;29.96;101664.78;6189818;23;20129;-77
2023/07/08 11:11:34;;;;;;;7.88;5.80;;;;;;;34.77;30.42;101666.53;6190347;23;20025;-77
2023/07/08 11:14:10;;;;;;;8.20;5.75;;;;;;;34.76;30.29;101670.59;6190082;23;20020;-76
2023/07/08 11:16:45;;;;;;;8.68;5.50;;;;;;;34.93;30.31;101666.88;6190217;23;20072;-77
2023/07/08 11:19:21;;;;;;;8.80;6.03;;;;;;;35.08;30.58;101669.28;6163958;23;20045;-77
2023/07/08 11:21:54;;;;;;;6.55;5.80;;;;;;;35.01;30.17;101669.47;6163475;23;20022;-77
2023/07/08 11:24:33;;;;;;;7.35;5.75;;;;;;;35.01;30.01;101661.88;6189674;23;20109;-78
2023/07/08 11:27:08;;;;;;;6.32;5.43;;;;;;;35.01;29.54;101664.66;6158993;23;20070;-77
2023/07/08 11:29:45;;;;;;;6.97;6.15;;;;;;;35.06;29.02;101666.38;6159799;23;20475;-77
2023/07/08 11:32:15;;;;;;;6.55;5.95;;;;;;;35.12;28.77;101670.84;6158634;23;20168;-77
2023/07/08 11:34:46;;;;;;;6.40;5.68;;;;;;;35.34;28.32;101659.19;6160394;23;20021;-76
2023/07/08 11:37:13;;;;;;;;;;;;;;;35.65;29.07;101655.59;6161327;23;20014;-77
2023/07/08 11:39:45;;;;;;;11.15;6.43;;;;;;;35.72;28.71;101662.97;6158950;23;19927;-76
2023/07/08 11:42:23;;;;;;;6.65;5.80;;;;;;;35.39;28.84;101663.69;6157891;23;20333;-77